メインページ
METAR-TAF:

METAR-TAF

空港 :

ハルビン太平国際空港

ハルビン, 中華人民共和国

緯度: 45-45N, 経度: 126-46E, 海抜: 143m

現時点の気象観測

当レポートは1時間6分前の23:00(UTC)に作成
南西の風 12kt
気温 25°C
湿度 83%
気圧 1004 hPa
視程: 7000m
高度2000ftの千切れ雲あり

METAR: ZYHB 162300Z 22006MPS 7000 BKN020 25/22 Q1004 NOSIG

時間: 08:06 (00:06 UTC)

予報

当レポートは4時間57分前の19:09(UTC)に作成
予報は17日の 00時(UTC)から 17日の 24時(UTC)まで有効
南西の風 8kt、最大23ktの突風を伴う
視程: 6000m
高度3000ftの千切れ雲あり

TAF: ZYHB 161909Z 1700/1724 22004G12MPS 6000 BKN030 TX30/1706Z TN23/1720Z

4,000以上の空港の気象観測と天気予報(METAR報とTAF報)

利用可能な観測所は地図上に黄色い丸と赤い丸で示す。

丸の上にカーソルを重ねると観測所名を参照できる。

次にクリックすると気象観測と天気予報を参照できる。

マップの切り替え:黒色「×」印の緑ボタンをクリックして拡大、「-」印の緑ボタンをクリックして縮小、緑色の三角印をクリックして隣りの地図に切り替え


METAR-TAF: